sensor_id;sensor_type;location;lat;lon;timestamp;temperature;humidity
6114;DHT22;3087;48.392;10.836;2023-05-10T00:00:09;14.00;99.90
6114;DHT22;3087;48.392;10.836;2023-05-10T00:02:35;13.80;99.90
6114;DHT22;3087;48.392;10.836;2023-05-10T00:05:01;13.70;99.90
6114;DHT22;3087;48.392;10.836;2023-05-10T00:07:27;13.80;99.90
6114;DHT22;3087;48.392;10.836;2023-05-10T00:09:53;13.80;99.90
6114;DHT22;3087;48.392;10.836;2023-05-10T00:12:18;13.80;99.90
6114;DHT22;3087;48.392;10.836;2023-05-10T00:14:44;13.90;99.90
6114;DHT22;3087;48.392;10.836;2023-05-10T00:17:10;13.90;99.90
6114;DHT22;3087;48.392;10.836;2023-05-10T00:19:35;13.90;99.90
6114;DHT22;3087;48.392;10.836;2023-05-10T00:22:01;14.00;99.90
6114;DHT22;3087;48.392;10.836;2023-05-10T00:24:27;14.10;99.90
6114;DHT22;3087;48.392;10.836;2023-05-10T00:26:52;14.10;99.90
6114;DHT22;3087;48.392;10.836;2023-05-10T00:29:18;14.10;99.90
6114;DHT22;3087;48.392;10.836;2023-05-10T00:31:44;14.10;99.90
6114;DHT22;3087;48.392;10.836;2023-05-10T00:34:09;14.20;99.90
6114;DHT22;3087;48.392;10.836;2023-05-10T00:36:35;14.10;99.90
6114;DHT22;3087;48.392;10.836;2023-05-10T00:39:01;14.10;99.90
6114;DHT22;3087;48.392;10.836;2023-05-10T00:41:27;14.10;99.90
6114;DHT22;3087;48.392;10.836;2023-05-10T00:43:52;14.10;99.90
6114;DHT22;3087;48.392;10.836;2023-05-10T00:46:18;14.20;99.90
6114;DHT22;3087;48.392;10.836;2023-05-10T00:48:44;14.20;99.90
6114;DHT22;3087;48.392;10.836;2023-05-10T00:51:10;14.10;99.90
6114;DHT22;3087;48.392;10.836;2023-05-10T00:53:35;14.10;99.90
6114;DHT22;3087;48.392;10.836;2023-05-10T00:56:01;14.10;99.90
6114;DHT22;3087;48.392;10.836;2023-05-10T00:58:28;14.10;99.90
6114;DHT22;3087;48.392;10.836;2023-05-10T01:00:56;14.10;99.90
6114;DHT22;3087;48.392;10.836;2023-05-10T01:03:23;14.10;99.90
6114;DHT22;3087;48.392;10.836;2023-05-10T01:05:48;14.10;99.90
6114;DHT22;3087;48.392;10.836;2023-05-10T01:08:15;14.30;99.90
6114;DHT22;3087;48.392;10.836;2023-05-10T01:10:41;14.20;99.90
6114;DHT22;3087;48.392;10.836;2023-05-10T01:13:08;14.20;99.90
6114;DHT22;3087;48.392;10.836;2023-05-10T01:15:34;14.20;99.90
6114;DHT22;3087;48.392;10.836;2023-05-10T01:18:01;14.20;99.90
6114;DHT22;3087;48.392;10.836;2023-05-10T01:20:32;14.20;99.90
6114;DHT22;3087;48.392;10.836;2023-05-10T01:31:18;14.20;99.90
6114;DHT22;3087;48.392;10.836;2023-05-10T01:34:02;14.20;99.90
6114;DHT22;3087;48.392;10.836;2023-05-10T01:36:31;14.20;99.90
6114;DHT22;3087;48.392;10.836;2023-05-10T01:42:10;14.20;99.90
6114;DHT22;3087;48.392;10.836;2023-05-10T01:47:35;14.30;99.90
6114;DHT22;3087;48.392;10.836;2023-05-10T01:50:04;14.30;99.90
6114;DHT22;3087;48.392;10.836;2023-05-10T01:52:42;14.20;99.90
6114;DHT22;3087;48.392;10.836;2023-05-10T01:55:13;14.20;99.90
6114;DHT22;3087;48.392;10.836;2023-05-10T01:57:40;14.10;99.90
6114;DHT22;3087;48.392;10.836;2023-05-10T02:00:08;14.10;99.90
6114;DHT22;3087;48.392;10.836;2023-05-10T02:02:39;14.10;99.90
6114;DHT22;3087;48.392;10.836;2023-05-10T02:05:08;14.00;99.90
6114;DHT22;3087;48.392;10.836;2023-05-10T02:07:36;13.90;99.90
6114;DHT22;3087;48.392;10.836;2023-05-10T02:10:05;14.00;99.90
6114;DHT22;3087;48.392;10.836;2023-05-10T02:12:33;13.90;99.90
6114;DHT22;3087;48.392;10.836;2023-05-10T02:15:02;14.00;99.90
6114;DHT22;3087;48.392;10.836;2023-05-10T02:17:31;14.00;99.90
6114;DHT22;3087;48.392;10.836;2023-05-10T02:19:57;14.00;99.90
6114;DHT22;3087;48.392;10.836;2023-05-10T02:22:27;13.90;99.90
6114;DHT22;3087;48.392;10.836;2023-05-10T02:24:55;14.00;99.90
6114;DHT22;3087;48.392;10.836;2023-05-10T02:27:23;13.90;99.90
6114;DHT22;3087;48.392;10.836;2023-05-10T02:29:50;13.90;99.90
6114;DHT22;3087;48.392;10.836;2023-05-10T02:32:17;13.90;99.90
6114;DHT22;3087;48.392;10.836;2023-05-10T02:34:44;13.90;99.90
6114;DHT22;3087;48.392;10.836;2023-05-10T02:37:13;13.90;99.90
6114;DHT22;3087;48.392;10.836;2023-05-10T02:39:40;13.90;99.90
6114;DHT22;3087;48.392;10.836;2023-05-10T02:42:11;13.80;99.90
6114;DHT22;3087;48.392;10.836;2023-05-10T02:44:41;13.80;99.90
6114;DHT22;3087;48.392;10.836;2023-05-10T02:47:07;13.80;99.90
6114;DHT22;3087;48.392;10.836;2023-05-10T02:49:33;13.90;99.90
6114;DHT22;3087;48.392;10.836;2023-05-10T02:52:01;14.00;99.90
6114;DHT22;3087;48.392;10.836;2023-05-10T02:54:33;13.90;99.90
6114;DHT22;3087;48.392;10.836;2023-05-10T02:57:01;14.20;99.90
6114;DHT22;3087;48.392;10.836;2023-05-10T02:59:29;14.20;99.90
6114;DHT22;3087;48.392;10.836;2023-05-10T03:01:54;14.20;99.90
6114;DHT22;3087;48.392;10.836;2023-05-10T03:04:20;14.20;99.90
6114;DHT22;3087;48.392;10.836;2023-05-10T03:06:46;14.20;99.90
6114;DHT22;3087;48.392;10.836;2023-05-10T03:09:12;14.20;99.90
6114;DHT22;3087;48.392;10.836;2023-05-10T03:12:00;14.00;99.90
6114;DHT22;3087;48.392;10.836;2023-05-10T03:17:33;14.00;99.90
6114;DHT22;3087;48.392;10.836;2023-05-10T03:20:08;14.00;99.90
6114;DHT22;3087;48.392;10.836;2023-05-10T03:22:45;13.90;99.90
6114;DHT22;3087;48.392;10.836;2023-05-10T03:25:12;13.80;99.90
6114;DHT22;3087;48.392;10.836;2023-05-10T03:27:42;13.70;99.90
6114;DHT22;3087;48.392;10.836;2023-05-10T03:30:11;13.80;99.90
6114;DHT22;3087;48.392;10.836;2023-05-10T03:32:37;13.80;99.90
6114;DHT22;3087;48.392;10.836;2023-05-10T03:35:10;13.80;99.90
6114;DHT22;3087;48.392;10.836;2023-05-10T03:37:36;13.90;99.90
6114;DHT22;3087;48.392;10.836;2023-05-10T03:40:02;14.00;99.90
6114;DHT22;3087;48.392;10.836;2023-05-10T03:42:28;14.10;99.90
6114;DHT22;3087;48.392;10.836;2023-05-10T03:44:53;14.30;99.90
6114;DHT22;3087;48.392;10.836;2023-05-10T03:47:19;14.20;99.90
6114;DHT22;3087;48.392;10.836;2023-05-10T03:49:45;14.10;99.90
6114;DHT22;3087;48.392;10.836;2023-05-10T03:52:11;14.10;99.90
6114;DHT22;3087;48.392;10.836;2023-05-10T03:54:37;14.10;99.90
6114;DHT22;3087;48.392;10.836;2023-05-10T03:57:03;14.00;99.90
6114;DHT22;3087;48.392;10.836;2023-05-10T03:59:29;13.90;99.90
6114;DHT22;3087;48.392;10.836;2023-05-10T04:01:55;14.00;99.90
6114;DHT22;3087;48.392;10.836;2023-05-10T04:04:21;14.10;99.90
6114;DHT22;3087;48.392;10.836;2023-05-10T04:06:47;14.10;99.90
6114;DHT22;3087;48.392;10.836;2023-05-10T04:09:13;13.90;99.90
6114;DHT22;3087;48.392;10.836;2023-05-10T04:11:39;14.00;99.90
6114;DHT22;3087;48.392;10.836;2023-05-10T04:14:04;14.00;99.90
6114;DHT22;3087;48.392;10.836;2023-05-10T04:16:30;14.10;99.90
6114;DHT22;3087;48.392;10.836;2023-05-10T04:18:55;14.00;99.90
6114;DHT22;3087;48.392;10.836;2023-05-10T04:21:21;14.00;99.90
6114;DHT22;3087;48.392;10.836;2023-05-10T04:23:47;14.00;99.90
6114;DHT22;3087;48.392;10.836;2023-05-10T04:26:13;14.00;99.90
6114;DHT22;3087;48.392;10.836;2023-05-10T04:28:38;14.00;99.90
6114;DHT22;3087;48.392;10.836;2023-05-10T04:31:09;14.10;99.90
6114;DHT22;3087;48.392;10.836;2023-05-10T04:33:35;14.00;99.90
6114;DHT22;3087;48.392;10.836;2023-05-10T04:36:01;14.10;99.90
6114;DHT22;3087;48.392;10.836;2023-05-10T04:38:27;14.10;99.90
6114;DHT22;3087;48.392;10.836;2023-05-10T04:40:53;14.20;99.90
6114;DHT22;3087;48.392;10.836;2023-05-10T04:43:19;14.20;99.90
6114;DHT22;3087;48.392;10.836;2023-05-10T04:45:45;14.20;99.90
6114;DHT22;3087;48.392;10.836;2023-05-10T04:48:11;14.20;99.90
6114;DHT22;3087;48.392;10.836;2023-05-10T04:50:36;14.20;99.90
6114;DHT22;3087;48.392;10.836;2023-05-10T04:53:02;14.20;99.90
6114;DHT22;3087;48.392;10.836;2023-05-10T04:55:27;14.20;99.90
6114;DHT22;3087;48.392;10.836;2023-05-10T04:57:53;14.30;99.90
6114;DHT22;3087;48.392;10.836;2023-05-10T05:00:22;14.30;99.90
6114;DHT22;3087;48.392;10.836;2023-05-10T05:02:47;14.30;99.90
6114;DHT22;3087;48.392;10.836;2023-05-10T05:05:13;14.40;99.90
6114;DHT22;3087;48.392;10.836;2023-05-10T05:07:39;14.50;99.90
6114;DHT22;3087;48.392;10.836;2023-05-10T05:10:08;14.40;99.90
6114;DHT22;3087;48.392;10.836;2023-05-10T05:12:34;14.40;99.90
6114;DHT22;3087;48.392;10.836;2023-05-10T05:15:00;14.50;99.90
6114;DHT22;3087;48.392;10.836;2023-05-10T05:17:27;14.50;99.90
6114;DHT22;3087;48.392;10.836;2023-05-10T05:19:55;14.80;99.90
6114;DHT22;3087;48.392;10.836;2023-05-10T05:22:21;14.60;99.90
6114;DHT22;3087;48.392;10.836;2023-05-10T05:24:53;14.70;99.90
6114;DHT22;3087;48.392;10.836;2023-05-10T05:27:19;14.70;99.90
6114;DHT22;3087;48.392;10.836;2023-05-10T05:29:47;14.70;99.90
6114;DHT22;3087;48.392;10.836;2023-05-10T05:32:13;14.70;99.90
6114;DHT22;3087;48.392;10.836;2023-05-10T05:34:38;14.80;99.90
6114;DHT22;3087;48.392;10.836;2023-05-10T05:37:04;14.80;99.90
6114;DHT22;3087;48.392;10.836;2023-05-10T05:39:30;14.80;99.90
6114;DHT22;3087;48.392;10.836;2023-05-10T05:41:55;14.90;99.90
6114;DHT22;3087;48.392;10.836;2023-05-10T05:44:21;14.90;99.90
6114;DHT22;3087;48.392;10.836;2023-05-10T05:46:46;15.00;99.90
6114;DHT22;3087;48.392;10.836;2023-05-10T05:49:12;15.20;99.90
6114;DHT22;3087;48.392;10.836;2023-05-10T05:51:38;15.00;99.90
6114;DHT22;3087;48.392;10.836;2023-05-10T05:54:04;14.90;99.90
6114;DHT22;3087;48.392;10.836;2023-05-10T05:56:30;15.00;99.90
6114;DHT22;3087;48.392;10.836;2023-05-10T05:58:55;15.00;99.90
6114;DHT22;3087;48.392;10.836;2023-05-10T06:01:21;14.90;99.90
6114;DHT22;3087;48.392;10.836;2023-05-10T06:03:47;14.90;99.90
6114;DHT22;3087;48.392;10.836;2023-05-10T06:06:12;15.00;99.90
6114;DHT22;3087;48.392;10.836;2023-05-10T06:08:38;15.30;99.90
6114;DHT22;3087;48.392;10.836;2023-05-10T06:11:04;15.00;99.90
6114;DHT22;3087;48.392;10.836;2023-05-10T06:13:30;15.00;99.90
6114;DHT22;3087;48.392;10.836;2023-05-10T06:16:00;15.10;99.90
6114;DHT22;3087;48.392;10.836;2023-05-10T06:18:26;15.20;99.90
6114;DHT22;3087;48.392;10.836;2023-05-10T06:20:52;15.20;99.90
6114;DHT22;3087;48.392;10.836;2023-05-10T06:23:17;15.20;99.90
6114;DHT22;3087;48.392;10.836;2023-05-10T06:25:43;15.30;99.90
6114;DHT22;3087;48.392;10.836;2023-05-10T06:28:09;15.30;99.90
6114;DHT22;3087;48.392;10.836;2023-05-10T06:30:36;15.30;99.90
6114;DHT22;3087;48.392;10.836;2023-05-10T06:33:02;15.30;99.90
6114;DHT22;3087;48.392;10.836;2023-05-10T06:35:28;15.40;99.90
6114;DHT22;3087;48.392;10.836;2023-05-10T06:37:54;15.40;99.90
6114;DHT22;3087;48.392;10.836;2023-05-10T06:40:20;15.40;99.90
6114;DHT22;3087;48.392;10.836;2023-05-10T06:42:46;15.40;99.90
6114;DHT22;3087;48.392;10.836;2023-05-10T06:45:13;15.20;99.90
6114;DHT22;3087;48.392;10.836;2023-05-10T06:47:39;15.30;99.90
6114;DHT22;3087;48.392;10.836;2023-05-10T06:50:06;15.50;99.90
6114;DHT22;3087;48.392;10.836;2023-05-10T06:52:32;15.70;99.90
6114;DHT22;3087;48.392;10.836;2023-05-10T06:54:57;15.80;99.90
6114;DHT22;3087;48.392;10.836;2023-05-10T06:57:23;15.90;99.90
6114;DHT22;3087;48.392;10.836;2023-05-10T06:59:49;16.10;99.90
6114;DHT22;3087;48.392;10.836;2023-05-10T07:02:15;16.00;99.90
6114;DHT22;3087;48.392;10.836;2023-05-10T07:04:41;15.80;99.90
6114;DHT22;3087;48.392;10.836;2023-05-10T07:07:07;15.90;99.90
6114;DHT22;3087;48.392;10.836;2023-05-10T07:09:33;16.10;99.90
6114;DHT22;3087;48.392;10.836;2023-05-10T07:11:59;16.10;99.90
6114;DHT22;3087;48.392;10.836;2023-05-10T07:14:25;16.30;99.90
6114;DHT22;3087;48.392;10.836;2023-05-10T07:16:50;16.30;99.90
6114;DHT22;3087;48.392;10.836;2023-05-10T07:19:16;16.40;99.90
6114;DHT22;3087;48.392;10.836;2023-05-10T07:21:41;16.40;99.90
6114;DHT22;3087;48.392;10.836;2023-05-10T07:24:09;16.40;99.90
6114;DHT22;3087;48.392;10.836;2023-05-10T07:26:34;16.60;99.90
6114;DHT22;3087;48.392;10.836;2023-05-10T07:29:00;16.80;99.90
6114;DHT22;3087;48.392;10.836;2023-05-10T07:31:26;16.90;99.90
6114;DHT22;3087;48.392;10.836;2023-05-10T07:33:52;16.90;99.90
6114;DHT22;3087;48.392;10.836;2023-05-10T07:36:17;16.60;99.90
6114;DHT22;3087;48.392;10.836;2023-05-10T07:38:43;16.50;99.90
6114;DHT22;3087;48.392;10.836;2023-05-10T07:41:09;16.80;99.90
6114;DHT22;3087;48.392;10.836;2023-05-10T07:43:34;16.70;99.90
6114;DHT22;3087;48.392;10.836;2023-05-10T07:46:00;16.70;99.90
6114;DHT22;3087;48.392;10.836;2023-05-10T07:48:26;16.70;99.90
6114;DHT22;3087;48.392;10.836;2023-05-10T07:50:51;16.70;99.90
6114;DHT22;3087;48.392;10.836;2023-05-10T07:53:17;16.70;99.90
6114;DHT22;3087;48.392;10.836;2023-05-10T07:55:44;16.70;99.90
6114;DHT22;3087;48.392;10.836;2023-05-10T07:58:10;16.60;99.90
6114;DHT22;3087;48.392;10.836;2023-05-10T08:00:35;16.70;99.90
6114;DHT22;3087;48.392;10.836;2023-05-10T08:03:04;16.90;99.90
6114;DHT22;3087;48.392;10.836;2023-05-10T08:05:30;16.80;99.90
6114;DHT22;3087;48.392;10.836;2023-05-10T08:07:56;16.90;99.90
6114;DHT22;3087;48.392;10.836;2023-05-10T08:10:21;16.80;99.90
6114;DHT22;3087;48.392;10.836;2023-05-10T08:12:47;16.90;99.90
6114;DHT22;3087;48.392;10.836;2023-05-10T08:15:13;17.00;99.90
6114;DHT22;3087;48.392;10.836;2023-05-10T08:17:38;17.00;99.90
6114;DHT22;3087;48.392;10.836;2023-05-10T08:20:05;17.00;99.90
6114;DHT22;3087;48.392;10.836;2023-05-10T08:22:30;17.20;99.90
6114;DHT22;3087;48.392;10.836;2023-05-10T08:24:56;17.40;99.90
6114;DHT22;3087;48.392;10.836;2023-05-10T08:27:21;17.50;99.90
6114;DHT22;3087;48.392;10.836;2023-05-10T08:29:47;17.60;99.90
6114;DHT22;3087;48.392;10.836;2023-05-10T08:32:13;17.50;99.90
6114;DHT22;3087;48.392;10.836;2023-05-10T08:34:38;17.40;99.90
6114;DHT22;3087;48.392;10.836;2023-05-10T08:37:04;17.20;99.90
6114;DHT22;3087;48.392;10.836;2023-05-10T08:39:29;17.00;99.90
6114;DHT22;3087;48.392;10.836;2023-05-10T08:42:02;17.10;99.90
6114;DHT22;3087;48.392;10.836;2023-05-10T08:44:28;17.20;99.90
6114;DHT22;3087;48.392;10.836;2023-05-10T08:46:54;17.20;99.90
6114;DHT22;3087;48.392;10.836;2023-05-10T08:49:20;17.30;99.90
6114;DHT22;3087;48.392;10.836;2023-05-10T08:51:50;17.40;99.90
6114;DHT22;3087;48.392;10.836;2023-05-10T08:54:16;17.60;99.90
6114;DHT22;3087;48.392;10.836;2023-05-10T08:56:42;17.80;99.90
6114;DHT22;3087;48.392;10.836;2023-05-10T08:59:08;17.80;99.90
6114;DHT22;3087;48.392;10.836;2023-05-10T09:01:36;17.70;99.90
6114;DHT22;3087;48.392;10.836;2023-05-10T09:04:02;17.50;99.90
6114;DHT22;3087;48.392;10.836;2023-05-10T09:06:29;17.30;99.90
6114;DHT22;3087;48.392;10.836;2023-05-10T09:08:55;17.20;99.90
6114;DHT22;3087;48.392;10.836;2023-05-10T09:11:21;17.10;99.90
6114;DHT22;3087;48.392;10.836;2023-05-10T09:13:48;17.00;99.90
6114;DHT22;3087;48.392;10.836;2023-05-10T09:16:14;17.00;99.90
6114;DHT22;3087;48.392;10.836;2023-05-10T09:18:40;17.00;99.90
6114;DHT22;3087;48.392;10.836;2023-05-10T09:21:06;17.00;99.90
6114;DHT22;3087;48.392;10.836;2023-05-10T09:23:31;17.20;99.90
6114;DHT22;3087;48.392;10.836;2023-05-10T09:26:07;17.40;99.90
6114;DHT22;3087;48.392;10.836;2023-05-10T09:28:59;17.20;99.90
6114;DHT22;3087;48.392;10.836;2023-05-10T09:34:08;16.50;99.90
6114;DHT22;3087;48.392;10.836;2023-05-10T09:36:34;15.80;99.90
6114;DHT22;3087;48.392;10.836;2023-05-10T09:38:59;15.60;99.90
6114;DHT22;3087;48.392;10.836;2023-05-10T09:41:25;15.60;99.90
6114;DHT22;3087;48.392;10.836;2023-05-10T09:43:55;15.50;99.90
6114;DHT22;3087;48.392;10.836;2023-05-10T09:46:22;15.50;99.90
6114;DHT22;3087;48.392;10.836;2023-05-10T09:48:48;18.30;99.90
6114;DHT22;3087;48.392;10.836;2023-05-10T09:51:21;16.00;99.90
6114;DHT22;3087;48.392;10.836;2023-05-10T09:53:47;16.20;99.90
6114;DHT22;3087;48.392;10.836;2023-05-10T09:56:33;16.40;99.90
6114;DHT22;3087;48.392;10.836;2023-05-10T09:59:03;16.50;99.90
6114;DHT22;3087;48.392;10.836;2023-05-10T10:01:29;16.40;99.90
6114;DHT22;3087;48.392;10.836;2023-05-10T10:03:56;16.20;99.90
6114;DHT22;3087;48.392;10.836;2023-05-10T10:06:23;16.10;99.90
6114;DHT22;3087;48.392;10.836;2023-05-10T10:08:49;16.10;99.90
6114;DHT22;3087;48.392;10.836;2023-05-10T10:11:15;16.00;99.90
6114;DHT22;3087;48.392;10.836;2023-05-10T10:13:40;16.10;99.90
6114;DHT22;3087;48.392;10.836;2023-05-10T10:16:08;16.30;99.90
6114;DHT22;3087;48.392;10.836;2023-05-10T10:18:33;16.30;99.90
6114;DHT22;3087;48.392;10.836;2023-05-10T10:21:07;16.50;99.90
6114;DHT22;3087;48.392;10.836;2023-05-10T10:23:34;16.50;99.90
6114;DHT22;3087;48.392;10.836;2023-05-10T10:26:04;16.80;99.90
6114;DHT22;3087;48.392;10.836;2023-05-10T10:31:39;17.30;99.90
6114;DHT22;3087;48.392;10.836;2023-05-10T10:34:06;17.90;99.90
6114;DHT22;3087;48.392;10.836;2023-05-10T10:36:53;18.20;99.90
6114;DHT22;3087;48.392;10.836;2023-05-10T10:39:20;18.70;99.90
6114;DHT22;3087;48.392;10.836;2023-05-10T10:41:55;19.20;99.90
6114;DHT22;3087;48.392;10.836;2023-05-10T10:44:22;19.40;99.90
6114;DHT22;3087;48.392;10.836;2023-05-10T10:54:59;18.80;99.90
6114;DHT22;3087;48.392;10.836;2023-05-10T10:57:26;18.90;99.90
6114;DHT22;3087;48.392;10.836;2023-05-10T11:07:53;18.50;99.90
6114;DHT22;3087;48.392;10.836;2023-05-10T11:10:24;18.40;99.90
6114;DHT22;3087;48.392;10.836;2023-05-10T11:13:01;18.50;99.90
6114;DHT22;3087;48.392;10.836;2023-05-10T11:15:31;18.60;99.90
6114;DHT22;3087;48.392;10.836;2023-05-10T11:17:58;18.70;99.90
6114;DHT22;3087;48.392;10.836;2023-05-10T11:20:27;18.70;99.90
6114;DHT22;3087;48.392;10.836;2023-05-10T11:23:10;18.70;99.90
6114;DHT22;3087;48.392;10.836;2023-05-10T11:25:44;18.80;99.90
6114;DHT22;3087;48.392;10.836;2023-05-10T11:28:11;19.00;99.90
6114;DHT22;3087;48.392;10.836;2023-05-10T11:30:41;18.80;99.90
6114;DHT22;3087;48.392;10.836;2023-05-10T11:33:09;18.50;99.90
6114;DHT22;3087;48.392;10.836;2023-05-10T11:35:39;18.30;99.90
6114;DHT22;3087;48.392;10.836;2023-05-10T11:38:06;18.10;99.90
6114;DHT22;3087;48.392;10.836;2023-05-10T11:40:32;18.00;99.90
6114;DHT22;3087;48.392;10.836;2023-05-10T11:42:58;17.80;99.90
6114;DHT22;3087;48.392;10.836;2023-05-10T11:45:24;17.70;99.90
6114;DHT22;3087;48.392;10.836;2023-05-10T11:47:50;17.70;99.90
6114;DHT22;3087;48.392;10.836;2023-05-10T11:50:17;17.70;99.90
6114;DHT22;3087;48.392;10.836;2023-05-10T11:52:42;17.80;99.90
6114;DHT22;3087;48.392;10.836;2023-05-10T11:55:08;18.00;99.90
6114;DHT22;3087;48.392;10.836;2023-05-10T11:57:35;18.20;99.90
6114;DHT22;3087;48.392;10.836;2023-05-10T12:00:04;18.20;99.90
6114;DHT22;3087;48.392;10.836;2023-05-10T12:02:30;18.00;99.90
6114;DHT22;3087;48.392;10.836;2023-05-10T12:04:56;17.70;99.90
6114;DHT22;3087;48.392;10.836;2023-05-10T12:07:21;17.40;99.90
6114;DHT22;3087;48.392;10.836;2023-05-10T12:10:12;17.20;99.90
6114;DHT22;3087;48.392;10.836;2023-05-10T12:12:46;17.00;99.90
6114;DHT22;3087;48.392;10.836;2023-05-10T12:15:23;16.90;99.90
6114;DHT22;3087;48.392;10.836;2023-05-10T12:17:49;17.20;99.90
6114;DHT22;3087;48.392;10.836;2023-05-10T12:22:43;17.80;99.90
6114;DHT22;3087;48.392;10.836;2023-05-10T12:25:09;18.00;99.90
6114;DHT22;3087;48.392;10.836;2023-05-10T12:27:35;18.20;99.90
6114;DHT22;3087;48.392;10.836;2023-05-10T12:30:02;18.40;99.90
6114;DHT22;3087;48.392;10.836;2023-05-10T12:32:41;18.40;99.90
6114;DHT22;3087;48.392;10.836;2023-05-10T12:35:07;18.20;99.90
6114;DHT22;3087;48.392;10.836;2023-05-10T12:37:33;18.20;99.90
6114;DHT22;3087;48.392;10.836;2023-05-10T12:40:01;18.20;99.90
6114;DHT22;3087;48.392;10.836;2023-05-10T12:42:28;18.30;99.90
6114;DHT22;3087;48.392;10.836;2023-05-10T12:44:56;18.40;99.90
6114;DHT22;3087;48.392;10.836;2023-05-10T12:47:22;18.30;99.90
6114;DHT22;3087;48.392;10.836;2023-05-10T12:49:47;18.30;99.90
6114;DHT22;3087;48.392;10.836;2023-05-10T12:52:13;18.20;99.90
6114;DHT22;3087;48.392;10.836;2023-05-10T12:54:38;17.90;99.90
6114;DHT22;3087;48.392;10.836;2023-05-10T12:57:04;17.80;99.90
6114;DHT22;3087;48.392;10.836;2023-05-10T12:59:30;17.70;99.90
6114;DHT22;3087;48.392;10.836;2023-05-10T13:01:57;17.50;99.90
6114;DHT22;3087;48.392;10.836;2023-05-10T13:04:22;17.00;99.90
6114;DHT22;3087;48.392;10.836;2023-05-10T13:06:49;16.60;99.90
6114;DHT22;3087;48.392;10.836;2023-05-10T13:09:15;16.40;99.90
6114;DHT22;3087;48.392;10.836;2023-05-10T13:11:40;16.40;99.90
6114;DHT22;3087;48.392;10.836;2023-05-10T13:14:06;16.30;99.90
6114;DHT22;3087;48.392;10.836;2023-05-10T13:16:32;16.50;99.90
6114;DHT22;3087;48.392;10.836;2023-05-10T13:18:57;15.90;99.90
6114;DHT22;3087;48.392;10.836;2023-05-10T13:21:23;15.60;99.90
6114;DHT22;3087;48.392;10.836;2023-05-10T13:23:50;16.00;99.90
6114;DHT22;3087;48.392;10.836;2023-05-10T13:26:16;15.80;99.90
6114;DHT22;3087;48.392;10.836;2023-05-10T13:28:41;15.80;99.90
6114;DHT22;3087;48.392;10.836;2023-05-10T13:31:07;15.80;99.90
6114;DHT22;3087;48.392;10.836;2023-05-10T13:33:33;16.00;99.90
6114;DHT22;3087;48.392;10.836;2023-05-10T13:35:59;16.00;99.90
6114;DHT22;3087;48.392;10.836;2023-05-10T13:38:24;16.20;99.90
6114;DHT22;3087;48.392;10.836;2023-05-10T13:40:50;16.10;99.90
6114;DHT22;3087;48.392;10.836;2023-05-10T13:43:18;16.10;99.90
6114;DHT22;3087;48.392;10.836;2023-05-10T13:45:44;16.10;99.90
6114;DHT22;3087;48.392;10.836;2023-05-10T13:48:10;16.00;99.90
6114;DHT22;3087;48.392;10.836;2023-05-10T13:50:35;15.90;99.90
6114;DHT22;3087;48.392;10.836;2023-05-10T13:53:01;15.90;99.90
6114;DHT22;3087;48.392;10.836;2023-05-10T13:55:26;16.00;99.90
6114;DHT22;3087;48.392;10.836;2023-05-10T13:57:52;16.20;99.90
6114;DHT22;3087;48.392;10.836;2023-05-10T14:00:18;16.20;99.90
6114;DHT22;3087;48.392;10.836;2023-05-10T14:02:43;15.80;99.90
6114;DHT22;3087;48.392;10.836;2023-05-10T14:05:09;15.40;99.90
6114;DHT22;3087;48.392;10.836;2023-05-10T14:07:35;15.10;99.90
6114;DHT22;3087;48.392;10.836;2023-05-10T14:10:00;14.60;99.90
6114;DHT22;3087;48.392;10.836;2023-05-10T14:12:26;14.00;99.90
6114;DHT22;3087;48.392;10.836;2023-05-10T14:14:52;13.70;99.90
6114;DHT22;3087;48.392;10.836;2023-05-10T14:17:18;13.50;99.90
6114;DHT22;3087;48.392;10.836;2023-05-10T14:19:43;13.30;99.90
6114;DHT22;3087;48.392;10.836;2023-05-10T14:22:10;13.10;99.90
6114;DHT22;3087;48.392;10.836;2023-05-10T14:24:35;13.20;99.90
6114;DHT22;3087;48.392;10.836;2023-05-10T14:27:01;13.40;99.90
6114;DHT22;3087;48.392;10.836;2023-05-10T14:29:27;13.30;99.90
6114;DHT22;3087;48.392;10.836;2023-05-10T14:31:52;13.40;99.90
6114;DHT22;3087;48.392;10.836;2023-05-10T14:34:18;13.50;99.90
6114;DHT22;3087;48.392;10.836;2023-05-10T14:36:44;13.70;99.90
6114;DHT22;3087;48.392;10.836;2023-05-10T14:39:09;13.80;99.90
6114;DHT22;3087;48.392;10.836;2023-05-10T14:41:35;14.20;99.90
6114;DHT22;3087;48.392;10.836;2023-05-10T14:44:01;13.80;99.90
6114;DHT22;3087;48.392;10.836;2023-05-10T14:46:28;13.90;99.90
6114;DHT22;3087;48.392;10.836;2023-05-10T14:48:55;13.90;99.90
6114;DHT22;3087;48.392;10.836;2023-05-10T14:51:20;13.90;99.90
6114;DHT22;3087;48.392;10.836;2023-05-10T14:53:48;14.00;99.90
6114;DHT22;3087;48.392;10.836;2023-05-10T14:56:15;13.90;99.90
6114;DHT22;3087;48.392;10.836;2023-05-10T14:58:40;13.90;99.90
6114;DHT22;3087;48.392;10.836;2023-05-10T15:01:06;13.80;99.90
6114;DHT22;3087;48.392;10.836;2023-05-10T15:03:31;13.70;99.90
6114;DHT22;3087;48.392;10.836;2023-05-10T15:05:57;13.70;99.90
6114;DHT22;3087;48.392;10.836;2023-05-10T15:08:23;13.80;99.90
6114;DHT22;3087;48.392;10.836;2023-05-10T15:10:50;13.60;99.90
6114;DHT22;3087;48.392;10.836;2023-05-10T15:13:16;13.40;99.90
6114;DHT22;3087;48.392;10.836;2023-05-10T15:15:41;13.40;99.90
6114;DHT22;3087;48.392;10.836;2023-05-10T15:18:08;13.50;99.90
6114;DHT22;3087;48.392;10.836;2023-05-10T15:20:34;13.50;99.90
6114;DHT22;3087;48.392;10.836;2023-05-10T15:23:00;13.50;99.90
6114;DHT22;3087;48.392;10.836;2023-05-10T15:25:26;13.70;99.90
6114;DHT22;3087;48.392;10.836;2023-05-10T15:27:53;13.40;99.90
6114;DHT22;3087;48.392;10.836;2023-05-10T15:30:18;13.60;99.90
6114;DHT22;3087;48.392;10.836;2023-05-10T15:32:44;13.30;99.90
6114;DHT22;3087;48.392;10.836;2023-05-10T15:35:10;13.50;99.90
6114;DHT22;3087;48.392;10.836;2023-05-10T15:37:36;13.10;99.90
6114;DHT22;3087;48.392;10.836;2023-05-10T15:40:02;13.40;99.90
6114;DHT22;3087;48.392;10.836;2023-05-10T15:42:32;13.00;99.90
6114;DHT22;3087;48.392;10.836;2023-05-10T15:44:57;13.00;99.90
6114;DHT22;3087;48.392;10.836;2023-05-10T15:47:23;13.20;99.90
6114;DHT22;3087;48.392;10.836;2023-05-10T15:49:49;13.10;99.90
6114;DHT22;3087;48.392;10.836;2023-05-10T15:52:15;13.20;99.90
6114;DHT22;3087;48.392;10.836;2023-05-10T15:54:42;13.20;99.90
6114;DHT22;3087;48.392;10.836;2023-05-10T15:57:07;13.20;99.90
6114;DHT22;3087;48.392;10.836;2023-05-10T15:59:33;13.00;99.90
6114;DHT22;3087;48.392;10.836;2023-05-10T16:02:00;13.10;99.90
6114;DHT22;3087;48.392;10.836;2023-05-10T16:04:25;13.20;99.90
6114;DHT22;3087;48.392;10.836;2023-05-10T16:06:51;13.20;99.90
6114;DHT22;3087;48.392;10.836;2023-05-10T16:09:17;13.20;99.90
6114;DHT22;3087;48.392;10.836;2023-05-10T16:11:43;14.70;99.90
6114;DHT22;3087;48.392;10.836;2023-05-10T16:14:08;13.40;99.90
6114;DHT22;3087;48.392;10.836;2023-05-10T16:16:34;15.90;99.90
6114;DHT22;3087;48.392;10.836;2023-05-10T16:19:00;13.30;99.90
6114;DHT22;3087;48.392;10.836;2023-05-10T16:21:26;13.20;99.90
6114;DHT22;3087;48.392;10.836;2023-05-10T16:23:53;13.20;99.90